createdAt,value
2023-05-24T00:01:52.823Z,14.17
2023-05-24T00:04:22.890Z,14.13
2023-05-24T00:06:51.845Z,13.80
2023-05-24T00:09:21.050Z,14.53
2023-05-24T00:11:49.481Z,14.63
2023-05-24T00:14:18.024Z,14.20
2023-05-24T00:16:47.084Z,13.70
2023-05-24T00:19:18.681Z,13.90
2023-05-24T00:21:48.881Z,13.90
2023-05-24T00:24:18.201Z,13.67
2023-05-24T00:26:46.717Z,13.50
2023-05-24T00:29:15.381Z,13.47
2023-05-24T00:31:44.124Z,14.13
2023-05-24T00:34:12.730Z,15.13
2023-05-24T00:36:41.436Z,14.73
2023-05-24T00:39:11.749Z,15.47
2023-05-24T00:41:40.187Z,15.63
2023-05-24T00:44:11.084Z,14.80
2023-05-24T00:46:39.750Z,14.57
2023-05-24T00:49:08.438Z,13.70
2023-05-24T00:51:38.591Z,14.30
2023-05-24T00:54:08.051Z,15.17
2023-05-24T00:56:37.799Z,15.60
2023-05-24T00:59:06.443Z,15.40
2023-05-24T01:01:35.453Z,15.37
2023-05-24T01:04:04.260Z,14.40
2023-05-24T01:07:10.996Z,15.57
2023-05-24T01:09:52.146Z,15.20
2023-05-24T01:12:32.136Z,15.33
2023-05-24T01:15:10.719Z,14.50
2023-05-24T01:17:48.528Z,15.13
2023-05-24T01:20:19.748Z,16.10
2023-05-24T01:23:08.967Z,16.07
2023-05-24T01:26:04.889Z,14.83
2023-05-24T01:28:35.610Z,14.70
2023-05-24T01:31:04.670Z,15.20
2023-05-24T01:33:33.914Z,13.77
2023-05-24T01:36:02.401Z,13.87
2023-05-24T01:38:30.789Z,13.47
2023-05-24T01:41:03.309Z,13.60
2023-05-24T01:43:39.635Z,13.53
2023-05-24T01:46:15.100Z,13.60
2023-05-24T01:48:53.157Z,13.17
2023-05-24T01:51:24.994Z,12.90
2023-05-24T01:53:54.337Z,12.43
2023-05-24T01:56:23.805Z,12.93
2023-05-24T01:59:00.529Z,13.70
2023-05-24T02:01:29.892Z,13.13
2023-05-24T02:03:58.783Z,13.37
2023-05-24T02:06:27.216Z,13.60
2023-05-24T02:08:55.609Z,13.23
2023-05-24T02:11:24.009Z,12.63
2023-05-24T02:13:54.101Z,13.70
2023-05-24T02:16:27.156Z,12.53
2023-05-24T02:18:55.575Z,13.30
2023-05-24T02:21:24.531Z,13.30
2023-05-24T02:23:52.978Z,13.27
2023-05-24T02:26:21.399Z,13.23
2023-05-24T02:28:49.920Z,13.93
2023-05-24T02:31:18.518Z,13.30
2023-05-24T02:33:48.296Z,12.60
2023-05-24T02:36:16.871Z,13.63
2023-05-24T02:38:45.233Z,12.63
2023-05-24T02:41:17.954Z,11.70
2023-05-24T02:43:46.732Z,12.47
2023-05-24T02:46:16.372Z,13.17
2023-05-24T02:48:44.857Z,12.80
2023-05-24T02:51:14.706Z,12.83
2023-05-24T02:53:43.762Z,12.73
2023-05-24T02:56:13.962Z,11.43
2023-05-24T02:58:42.949Z,11.23
2023-05-24T03:01:12.429Z,12.03
2023-05-24T03:03:42.213Z,11.83
2023-05-24T03:06:14.132Z,12.60
2023-05-24T03:08:44.572Z,12.23
2023-05-24T03:11:15.558Z,13.13
2023-05-24T03:13:44.504Z,14.20
2023-05-24T03:16:13.381Z,13.83
2023-05-24T03:18:42.007Z,13.80
2023-05-24T03:21:10.712Z,13.77
2023-05-24T03:23:39.118Z,14.20
2023-05-24T03:26:09.847Z,13.40
2023-05-24T03:28:38.445Z,12.97
2023-05-24T03:31:07.012Z,12.90
2023-05-24T03:33:35.986Z,12.43
2023-05-24T03:36:04.530Z,12.80
2023-05-24T03:38:34.015Z,14.50
2023-05-24T03:41:02.490Z,14.47
2023-05-24T03:43:32.250Z,13.90
2023-05-24T03:46:04.219Z,14.43
2023-05-24T03:48:32.655Z,14.60
2023-05-24T03:51:01.091Z,14.53
2023-05-24T03:53:29.618Z,14.20
2023-05-24T03:55:58.045Z,15.67
2023-05-24T03:58:26.614Z,15.20
2023-05-24T04:00:56.570Z,15.97
2023-05-24T04:03:26.397Z,15.43
2023-05-24T04:05:56.706Z,16.20
2023-05-24T04:08:25.285Z,15.20
2023-05-24T04:10:53.764Z,15.53
2023-05-24T04:13:22.341Z,14.27
2023-05-24T04:15:50.793Z,14.00
2023-05-24T04:18:21.780Z,14.30
2023-05-24T04:20:51.083Z,13.73
2023-05-24T04:23:21.949Z,13.57
2023-05-24T04:25:51.125Z,14.23
2023-05-24T04:28:22.300Z,13.43
2023-05-24T04:30:53.893Z,14.30
2023-05-24T04:33:23.779Z,14.67
2023-05-24T04:35:52.732Z,15.60
2023-05-24T04:38:22.128Z,14.67
2023-05-24T04:40:50.723Z,15.23
2023-05-24T04:43:19.115Z,15.13
2023-05-24T04:45:47.596Z,15.77
2023-05-24T04:48:16.064Z,15.87
2023-05-24T04:50:45.899Z,16.07
2023-05-24T04:53:14.642Z,14.57
2023-05-24T04:55:43.979Z,15.00
2023-05-24T04:58:12.586Z,14.57
2023-05-24T05:00:41.249Z,14.40
2023-05-24T05:03:10.812Z,13.33
2023-05-24T05:05:39.454Z,13.60
2023-05-24T05:08:09.782Z,13.37
2023-05-24T05:10:38.258Z,13.07
2023-05-24T05:13:06.716Z,12.70
2023-05-24T05:15:35.325Z,12.80
2023-05-24T05:18:03.806Z,13.00
2023-05-24T05:20:32.245Z,12.03
2023-05-24T05:23:00.832Z,12.00
2023-05-24T05:25:31.151Z,11.90
2023-05-24T05:27:59.593Z,11.57
2023-05-24T05:30:28.096Z,11.60
2023-05-24T05:32:56.770Z,11.13
2023-05-24T05:35:25.267Z,10.52
2023-05-24T05:37:53.764Z,9.30
2023-05-24T05:40:23.027Z,9.15
2023-05-24T05:42:52.687Z,9.63
2023-05-24T05:45:21.386Z,10.95
2023-05-24T05:47:49.949Z,11.57
2023-05-24T05:50:18.475Z,11.82
2023-05-24T05:52:46.907Z,11.70
2023-05-24T05:55:15.300Z,12.43
2023-05-24T05:57:43.827Z,12.25
2023-05-24T06:00:14.441Z,11.52
2023-05-24T06:02:42.972Z,11.88
2023-05-24T06:05:12.230Z,13.27
2023-05-24T06:07:41.348Z,11.90
2023-05-24T06:10:09.985Z,12.30
2023-05-24T06:12:38.852Z,12.70
2023-05-24T06:15:08.599Z,12.40
2023-05-24T06:17:38.567Z,12.40
2023-05-24T06:20:09.828Z,12.40
2023-05-24T06:22:39.891Z,11.57
2023-05-24T06:25:08.832Z,13.13
2023-05-24T06:27:37.267Z,13.23
2023-05-24T06:30:07.210Z,12.35
2023-05-24T06:32:35.661Z,11.98
2023-05-24T06:35:05.776Z,12.88
2023-05-24T06:37:34.185Z,12.95
2023-05-24T06:40:04.847Z,12.43
2023-05-24T06:42:33.396Z,13.43
2023-05-24T06:45:01.761Z,13.82
2023-05-24T06:47:30.516Z,13.63
2023-05-24T06:49:59.222Z,12.35
2023-05-24T06:52:29.035Z,11.45
2023-05-24T06:54:57.518Z,13.00
2023-05-24T06:57:27.141Z,12.52
2023-05-24T06:59:55.554Z,12.77
2023-05-24T07:02:27.565Z,12.02
2023-05-24T07:04:57.308Z,12.60
2023-05-24T07:07:25.818Z,12.73
2023-05-24T07:09:55.529Z,14.82
2023-05-24T07:12:24.581Z,15.00
2023-05-24T07:14:53.432Z,15.43
2023-05-24T07:17:21.923Z,14.52
2023-05-24T07:19:50.521Z,14.60
2023-05-24T07:22:19.027Z,14.93
2023-05-24T07:24:47.433Z,14.23
2023-05-24T07:27:17.224Z,14.45
2023-05-24T07:29:48.231Z,15.10
2023-05-24T07:32:17.147Z,14.88
2023-05-24T07:34:45.570Z,14.30
2023-05-24T07:37:13.964Z,13.85
2023-05-24T07:39:42.456Z,13.75
2023-05-24T07:42:10.859Z,14.15
2023-05-24T07:44:40.736Z,14.63
2023-05-24T07:47:09.216Z,14.55
2023-05-24T07:49:37.592Z,14.35
2023-05-24T07:52:06.532Z,14.20
2023-05-24T07:54:34.906Z,13.73
2023-05-24T07:57:03.364Z,14.02
2023-05-24T07:59:31.700Z,14.75
2023-05-24T08:02:21.418Z,14.65
2023-05-24T08:04:49.957Z,13.02
2023-05-24T08:07:18.558Z,13.93
2023-05-24T08:09:47.537Z,14.32
2023-05-24T08:12:17.171Z,14.20
2023-05-24T08:14:45.795Z,13.98
2023-05-24T08:17:15.530Z,14.82
2023-05-24T08:19:44.026Z,13.25
2023-05-24T08:22:12.841Z,13.27
2023-05-24T08:24:41.551Z,14.02
2023-05-24T08:27:09.906Z,13.63
2023-05-24T08:29:38.923Z,13.50
2023-05-24T08:32:09.762Z,12.93
2023-05-24T08:34:39.808Z,13.60
2023-05-24T08:37:09.496Z,13.18
2023-05-24T08:39:37.851Z,14.30
2023-05-24T08:42:10.171Z,13.98
2023-05-24T08:44:43.362Z,12.80
2023-05-24T08:47:12.210Z,12.02
2023-05-24T08:49:43.030Z,12.93
2023-05-24T08:52:13.464Z,12.07
2023-05-24T08:54:42.510Z,12.15
2023-05-24T08:57:12.406Z,12.55
2023-05-24T08:59:42.839Z,13.40
2023-05-24T09:02:15.040Z,13.27
2023-05-24T09:04:47.155Z,13.18
2023-05-24T09:07:18.737Z,13.27
2023-05-24T09:09:51.210Z,13.40
2023-05-24T09:12:35.678Z,13.00
2023-05-24T09:15:06.907Z,13.32
2023-05-24T09:17:36.930Z,13.27
2023-05-24T09:20:09.226Z,12.63
2023-05-24T09:22:40.998Z,13.77
2023-05-24T09:25:11.552Z,14.20
2023-05-24T09:27:40.402Z,13.45
2023-05-24T09:30:12.884Z,12.98
2023-05-24T09:32:43.006Z,13.15
2023-05-24T09:35:12.811Z,12.32
2023-05-24T09:37:41.406Z,12.07
2023-05-24T09:40:19.961Z,12.45
2023-05-24T09:42:51.556Z,10.50
2023-05-24T09:45:20.285Z,10.77
2023-05-24T09:47:49.906Z,11.07
2023-05-24T09:50:22.309Z,10.50
2023-05-24T09:52:54.263Z,11.73
2023-05-24T09:55:23.126Z,10.95
2023-05-24T09:58:04.578Z,11.10
2023-05-24T10:00:36.812Z,10.25
2023-05-24T10:03:07.336Z,9.93
2023-05-24T10:05:37.978Z,10.68
2023-05-24T10:08:06.804Z,11.07
2023-05-24T10:10:35.658Z,11.50
2023-05-24T10:13:04.477Z,10.80
2023-05-24T10:15:32.928Z,11.10
2023-05-24T10:18:02.088Z,10.70
2023-05-24T10:20:30.833Z,11.10
2023-05-24T10:23:05.087Z,10.23
2023-05-24T10:25:36.458Z,10.50
2023-05-24T10:28:11.169Z,10.80
2023-05-24T10:30:49.001Z,10.52
2023-05-24T10:33:19.477Z,10.32
2023-05-24T10:35:47.925Z,9.75
2023-05-24T10:38:17.998Z,9.98
2023-05-24T10:40:46.447Z,9.90
2023-05-24T10:43:15.450Z,10.60
2023-05-24T10:45:44.063Z,10.85
2023-05-24T10:48:36.349Z,10.98
2023-05-24T10:51:36.805Z,10.05
2023-05-24T10:54:17.980Z,10.23
2023-05-24T10:56:49.455Z,10.52
2023-05-24T10:59:26.113Z,10.75
2023-05-24T11:01:59.303Z,10.07
2023-05-24T11:04:31.996Z,10.25
2023-05-24T11:07:04.649Z,10.13
2023-05-24T11:09:35.112Z,10.13
2023-05-24T11:12:07.449Z,10.00
2023-05-24T11:14:40.229Z,10.40
2023-05-24T11:17:10.768Z,9.68
2023-05-24T11:19:47.185Z,10.50
2023-05-24T11:22:16.308Z,9.93
2023-05-24T11:24:46.830Z,10.02
2023-05-24T11:27:15.778Z,9.15
2023-05-24T11:29:45.166Z,9.25
2023-05-24T11:32:17.238Z,9.75
2023-05-24T11:34:47.784Z,10.32
2023-05-24T11:37:18.381Z,9.98
2023-05-24T11:39:53.416Z,10.15
2023-05-24T11:42:23.668Z,10.15
2023-05-24T11:44:55.136Z,9.70
2023-05-24T11:47:24.408Z,11.00
2023-05-24T11:49:53.089Z,9.60
2023-05-24T11:52:22.824Z,10.80
2023-05-24T11:54:52.928Z,10.02
2023-05-24T11:57:28.440Z,10.27
2023-05-24T11:59:58.540Z,10.05
2023-05-24T12:02:26.954Z,11.02
2023-05-24T12:04:55.511Z,10.38
2023-05-24T12:07:25.230Z,10.50
2023-05-24T12:09:54.922Z,10.43
2023-05-24T12:12:30.696Z,10.65
2023-05-24T12:15:02.949Z,9.82
2023-05-24T12:17:31.490Z,10.80
2023-05-24T12:19:59.884Z,11.25
2023-05-24T12:22:32.037Z,10.32
2023-05-24T12:25:01.730Z,9.70
2023-05-24T12:27:31.706Z,10.55
2023-05-24T12:30:10.020Z,9.90
2023-05-24T12:32:38.579Z,10.25
2023-05-24T12:35:07.795Z,10.07
2023-05-24T12:37:36.804Z,10.85
2023-05-24T12:40:17.524Z,10.50
2023-05-24T12:42:46.477Z,10.98
2023-05-24T12:45:16.048Z,10.90
2023-05-24T12:47:44.633Z,10.85
2023-05-24T12:50:13.067Z,10.40
2023-05-24T12:52:41.572Z,10.73
2023-05-24T12:55:11.647Z,11.20
2023-05-24T12:57:40.827Z,10.65
2023-05-24T13:00:10.764Z,11.20
2023-05-24T13:02:40.650Z,11.40
2023-05-24T13:05:10.714Z,11.18
2023-05-24T13:07:40.108Z,11.13
2023-05-24T13:10:09.505Z,11.40
2023-05-24T13:12:39.369Z,10.73
2023-05-24T13:15:09.357Z,11.98
2023-05-24T13:17:38.481Z,12.00
2023-05-24T13:20:11.490Z,10.65
2023-05-24T13:22:40.885Z,11.02
2023-05-24T13:25:10.623Z,11.07
2023-05-24T13:27:41.179Z,10.70
2023-05-24T13:30:10.846Z,10.40
2023-05-24T13:32:41.197Z,10.82
2023-05-24T13:35:11.586Z,10.88
2023-05-24T13:37:41.257Z,10.80
2023-05-24T13:40:11.337Z,11.27
2023-05-24T13:42:41.190Z,11.35
2023-05-24T13:45:10.593Z,11.23
2023-05-24T13:47:41.046Z,13.18
2023-05-24T13:50:11.141Z,12.63
2023-05-24T13:52:39.658Z,12.23
2023-05-24T13:55:09.018Z,12.57
2023-05-24T13:57:49.717Z,13.02
2023-05-24T14:00:21.995Z,11.98
2023-05-24T14:02:50.970Z,13.27
2023-05-24T14:07:51.683Z,12.40
2023-05-24T14:10:21.188Z,12.80
2023-05-24T14:13:03.513Z,12.52
2023-05-24T14:15:40.015Z,12.70
2023-05-24T14:18:11.008Z,11.90
2023-05-24T14:20:40.876Z,12.30
2023-05-24T14:23:10.061Z,12.63
2023-05-24T14:25:38.873Z,13.30
2023-05-24T14:28:08.619Z,11.93
2023-05-24T14:30:39.100Z,11.80
2023-05-24T14:33:11.695Z,12.13
2023-05-24T14:35:40.600Z,12.32
2023-05-24T14:38:10.367Z,12.13
2023-05-24T14:40:41.042Z,12.70
2023-05-24T14:43:11.072Z,12.52
2023-05-24T14:45:41.774Z,12.18
2023-05-24T14:48:13.083Z,12.27
2023-05-24T14:50:43.352Z,12.43
2023-05-24T14:53:13.165Z,12.02
2023-05-24T14:55:43.967Z,11.50
2023-05-24T14:58:13.615Z,12.13
2023-05-24T15:00:44.141Z,12.63
2023-05-24T15:03:14.999Z,12.38
2023-05-24T15:05:43.699Z,12.57
2023-05-24T15:08:12.225Z,12.60
2023-05-24T15:10:41.259Z,13.15
2023-05-24T15:13:09.772Z,12.93
2023-05-24T15:15:38.156Z,13.52
2023-05-24T15:18:08.177Z,13.65
2023-05-24T15:20:38.141Z,13.70
2023-05-24T15:23:10.429Z,12.98
2023-05-24T15:25:38.984Z,13.18
2023-05-24T15:28:07.552Z,13.55
2023-05-24T15:30:35.875Z,13.82
2023-05-24T15:33:04.458Z,14.15
2023-05-24T15:35:32.908Z,13.77
2023-05-24T15:38:02.717Z,15.30
2023-05-24T15:40:31.154Z,15.38
2023-05-24T15:42:59.769Z,15.10
2023-05-24T15:45:28.236Z,15.00
2023-05-24T15:47:56.712Z,15.50
2023-05-24T15:50:42.580Z,15.60
2023-05-24T15:53:15.206Z,14.57
2023-05-24T15:55:44.031Z,15.68
2023-05-24T15:58:13.891Z,13.80
2023-05-24T16:00:43.120Z,14.25
2023-05-24T16:03:15.668Z,13.60
2023-05-24T16:05:44.670Z,14.00
2023-05-24T16:08:16.206Z,13.40
2023-05-24T16:10:44.958Z,15.70
2023-05-24T16:13:13.650Z,15.18
2023-05-24T16:15:42.602Z,15.77
2023-05-24T16:18:11.240Z,14.67
2023-05-24T16:20:39.970Z,14.97
2023-05-24T16:23:08.485Z,13.80
2023-05-24T16:25:38.766Z,14.43
2023-05-24T16:28:07.209Z,14.27
2023-05-24T16:30:36.960Z,14.03
2023-05-24T16:33:05.771Z,13.73
2023-05-24T16:35:34.499Z,14.50
2023-05-24T16:38:03.105Z,14.83
2023-05-24T16:40:31.488Z,14.60
2023-05-24T16:43:01.125Z,14.73
2023-05-24T16:45:29.881Z,14.97
2023-05-24T16:47:58.394Z,13.73
2023-05-24T16:50:27.054Z,14.83
2023-05-24T16:52:55.676Z,15.00
2023-05-24T16:55:24.097Z,14.47
2023-05-24T16:57:52.481Z,15.87
2023-05-24T17:00:23.327Z,15.23
2023-05-24T17:02:51.949Z,15.20
2023-05-24T17:05:20.522Z,15.27
2023-05-24T17:07:49.004Z,14.90
2023-05-24T17:10:17.410Z,15.27
2023-05-24T17:12:47.521Z,15.27
2023-05-24T17:15:16.070Z,15.40
2023-05-24T17:17:46.069Z,15.07
2023-05-24T17:20:14.729Z,15.80
2023-05-24T17:22:43.269Z,16.10
2023-05-24T17:25:11.768Z,15.93
2023-05-24T17:27:40.241Z,15.37
2023-05-24T17:30:09.616Z,15.83
2023-05-24T17:32:38.120Z,15.20
2023-05-24T17:35:08.196Z,15.67
2023-05-24T17:37:36.627Z,15.40
2023-05-24T17:40:05.355Z,15.43
2023-05-24T17:42:33.812Z,15.73
2023-05-24T17:45:02.224Z,15.10
2023-05-24T17:47:30.799Z,15.90
2023-05-24T17:49:59.243Z,16.70
2023-05-24T17:52:29.816Z,16.90
2023-05-24T17:54:58.560Z,16.33
2023-05-24T17:57:27.908Z,16.30
2023-05-24T17:59:56.673Z,16.47
2023-05-24T18:02:28.021Z,16.10
2023-05-24T18:04:56.705Z,16.30
2023-05-24T18:07:25.782Z,17.17
2023-05-24T18:09:56.007Z,16.40
2023-05-24T18:12:28.726Z,16.03
2023-05-24T18:14:57.753Z,16.80
2023-05-24T18:17:27.385Z,16.33
2023-05-24T18:19:55.918Z,17.80
2023-05-24T18:22:24.411Z,17.20
2023-05-24T18:24:52.823Z,17.93
2023-05-24T18:27:22.645Z,17.87
2023-05-24T18:29:51.073Z,17.70
2023-05-24T18:32:20.422Z,17.80
2023-05-24T18:34:49.684Z,17.50
2023-05-24T18:37:19.958Z,18.10
2023-05-24T18:40:02.559Z,18.20
2023-05-24T18:42:32.451Z,17.70
2023-05-24T18:45:00.874Z,17.47
2023-05-24T18:47:31.145Z,17.80
2023-05-24T18:50:00.540Z,18.00
2023-05-24T18:52:29.019Z,18.17
2023-05-24T18:54:58.704Z,18.80
2023-05-24T18:57:27.179Z,17.97
2023-05-24T18:59:56.837Z,18.97
2023-05-24T19:02:25.320Z,18.30
2023-05-24T19:04:53.820Z,17.70
2023-05-24T19:07:22.265Z,18.17
2023-05-24T19:09:50.844Z,18.30
2023-05-24T19:12:19.305Z,17.30
2023-05-24T19:14:47.829Z,17.53
2023-05-24T19:17:17.523Z,17.83
2023-05-24T19:19:46.514Z,18.47
2023-05-24T19:22:14.992Z,18.60
2023-05-24T19:24:43.454Z,17.47
2023-05-24T19:27:11.883Z,17.07
2023-05-24T19:29:40.831Z,17.43
2023-05-24T19:32:10.638Z,17.10
2023-05-24T19:34:42.313Z,17.17
2023-05-24T19:37:11.237Z,17.73
2023-05-24T19:39:39.679Z,17.87
2023-05-24T19:42:08.100Z,17.23
2023-05-24T19:44:36.629Z,18.00
2023-05-24T19:47:05.200Z,17.80
2023-05-24T19:49:33.896Z,18.20
2023-05-24T19:52:03.713Z,17.87
2023-05-24T19:54:32.057Z,17.80
2023-05-24T19:57:01.779Z,18.60
2023-05-24T19:59:30.185Z,17.87
2023-05-24T20:01:58.674Z,16.80
2023-05-24T20:04:27.276Z,18.33
2023-05-24T20:06:55.893Z,17.97
2023-05-24T20:09:27.552Z,17.87
2023-05-24T20:12:11.577Z,18.07
2023-05-24T20:14:40.150Z,17.90
2023-05-24T20:17:09.426Z,17.67
2023-05-24T20:19:58.544Z,18.00
2023-05-24T20:22:27.259Z,18.03
2023-05-24T20:24:57.071Z,17.60
2023-05-24T20:27:25.461Z,17.10
2023-05-24T20:29:55.031Z,17.23
2023-05-24T20:32:23.595Z,17.80
2023-05-24T20:34:52.149Z,18.10
2023-05-24T20:37:26.817Z,17.97
2023-05-24T20:39:56.962Z,19.27
2023-05-24T20:42:25.486Z,18.90
2023-05-24T20:44:53.850Z,19.33
2023-05-24T20:47:22.337Z,18.30
2023-05-24T20:50:11.701Z,19.27
2023-05-24T20:52:40.167Z,18.80
2023-05-24T20:55:11.569Z,18.50
2023-05-24T20:57:40.574Z,18.27
2023-05-24T21:00:10.165Z,18.90
2023-05-24T21:02:40.064Z,19.13
2023-05-24T21:05:08.918Z,19.00
2023-05-24T21:07:37.432Z,20.10
2023-05-24T21:10:06.187Z,20.83
2023-05-24T21:12:43.323Z,19.57
2023-05-24T21:15:12.047Z,19.27
2023-05-24T21:17:40.713Z,20.00
2023-05-24T21:20:09.951Z,19.13
2023-05-24T21:22:38.799Z,18.13
2023-05-24T21:25:08.413Z,18.87
2023-05-24T21:27:38.166Z,18.93
2023-05-24T21:30:07.711Z,19.47
2023-05-24T21:32:36.673Z,19.10
2023-05-24T21:35:05.481Z,18.17
2023-05-24T21:37:33.911Z,19.93
2023-05-24T21:40:02.298Z,18.67
2023-05-24T21:42:30.803Z,18.17
2023-05-24T21:45:00.713Z,19.10
2023-05-24T21:47:29.188Z,18.00
2023-05-24T21:49:57.715Z,17.33
2023-05-24T21:52:26.106Z,17.50
2023-05-24T21:54:54.528Z,17.53
2023-05-24T21:57:26.245Z,17.93
2023-05-24T21:59:55.035Z,19.10
2023-05-24T22:02:24.772Z,19.83
2023-05-24T22:04:53.292Z,21.17
2023-05-24T22:07:21.696Z,21.57
2023-05-24T22:09:50.080Z,20.83
2023-05-24T22:12:18.423Z,20.33
2023-05-24T22:14:46.844Z,21.03
2023-05-24T22:17:15.290Z,20.60
2023-05-24T22:19:45.134Z,19.77
2023-05-24T22:22:13.678Z,19.93
2023-05-24T22:24:42.160Z,20.13
2023-05-24T22:27:13.629Z,18.80
2023-05-24T22:29:42.277Z,19.07
2023-05-24T22:32:11.070Z,18.27
2023-05-24T22:34:39.601Z,18.93
2023-05-24T22:37:09.360Z,18.13
2023-05-24T22:39:38.997Z,18.73
2023-05-24T22:42:07.425Z,19.00
2023-05-24T22:44:38.310Z,18.30
2023-05-24T22:47:08.182Z,19.67
2023-05-24T22:49:36.689Z,19.30
2023-05-24T22:52:06.986Z,19.20
2023-05-24T22:54:36.788Z,18.70
2023-05-24T22:57:05.732Z,18.63
2023-05-24T22:59:34.272Z,18.20
2023-05-24T23:02:02.565Z,18.70
2023-05-24T23:04:31.066Z,18.50
2023-05-24T23:06:59.546Z,18.93
2023-05-24T23:09:34.925Z,17.83
2023-05-24T23:12:08.473Z,17.90
2023-05-24T23:14:39.241Z,17.97
2023-05-24T23:17:10.349Z,19.30
2023-05-24T23:19:42.750Z,18.40
2023-05-24T23:22:12.013Z,18.10
2023-05-24T23:24:42.302Z,18.30
2023-05-24T23:27:12.792Z,17.80
2023-05-24T23:29:41.291Z,18.37
2023-05-24T23:32:10.672Z,19.40
2023-05-24T23:34:39.214Z,19.63
2023-05-24T23:37:08.445Z,19.07
2023-05-24T23:39:37.027Z,18.90
2023-05-24T23:42:06.922Z,19.50
2023-05-24T23:44:36.897Z,18.67
2023-05-24T23:47:05.561Z,18.80
2023-05-24T23:49:34.181Z,18.70
2023-05-24T23:52:02.680Z,17.80
2023-05-24T23:54:31.721Z,17.87
2023-05-24T23:57:00.083Z,17.67
2023-05-24T23:59:28.574Z,17.83
